sensor_id;sensor_type;location;lat;lon;timestamp;temperature;humidity
22418;DHT22;11376;50.932;4.442;2023-04-01T00:02:06;9.80;99.90
22418;DHT22;11376;50.932;4.442;2023-04-01T00:04:32;9.80;99.90
22418;DHT22;11376;50.932;4.442;2023-04-01T00:06:58;9.80;99.90
22418;DHT22;11376;50.932;4.442;2023-04-01T00:09:24;9.80;99.90
22418;DHT22;11376;50.932;4.442;2023-04-01T00:11:50;9.80;99.90
22418;DHT22;11376;50.932;4.442;2023-04-01T00:14:16;9.80;99.90
22418;DHT22;11376;50.932;4.442;2023-04-01T00:16:41;9.80;99.90
22418;DHT22;11376;50.932;4.442;2023-04-01T00:19:07;9.80;99.90
22418;DHT22;11376;50.932;4.442;2023-04-01T00:21:33;9.80;99.90
22418;DHT22;11376;50.932;4.442;2023-04-01T00:23:59;9.80;99.90
22418;DHT22;11376;50.932;4.442;2023-04-01T00:26:25;9.80;99.90
22418;DHT22;11376;50.932;4.442;2023-04-01T00:28:51;9.80;99.90
22418;DHT22;11376;50.932;4.442;2023-04-01T00:31:18;9.80;99.90
22418;DHT22;11376;50.932;4.442;2023-04-01T00:33:43;9.80;99.90
22418;DHT22;11376;50.932;4.442;2023-04-01T00:36:18;9.80;99.90
22418;DHT22;11376;50.932;4.442;2023-04-01T00:38:45;9.80;99.90
22418;DHT22;11376;50.932;4.442;2023-04-01T00:41:11;9.80;99.90
22418;DHT22;11376;50.932;4.442;2023-04-01T00:43:40;9.80;99.90
22418;DHT22;11376;50.932;4.442;2023-04-01T00:46:06;9.70;99.90
22418;DHT22;11376;50.932;4.442;2023-04-01T00:48:38;9.70;99.90
22418;DHT22;11376;50.932;4.442;2023-04-01T00:51:25;9.80;99.90
22418;DHT22;11376;50.932;4.442;2023-04-01T00:53:54;9.70;99.90
22418;DHT22;11376;50.932;4.442;2023-04-01T00:56:51;9.70;99.90
22418;DHT22;11376;50.932;4.442;2023-04-01T00:59:25;9.70;99.90
22418;DHT22;11376;50.932;4.442;2023-04-01T01:01:51;9.70;99.90
22418;DHT22;11376;50.932;4.442;2023-04-01T01:04:32;9.70;99.90
22418;DHT22;11376;50.932;4.442;2023-04-01T01:09:40;9.70;99.90
22418;DHT22;11376;50.932;4.442;2023-04-01T01:12:18;9.70;99.90
22418;DHT22;11376;50.932;4.442;2023-04-01T01:20:20;9.70;99.90
22418;DHT22;11376;50.932;4.442;2023-04-01T01:35:54;9.70;99.90
22418;DHT22;11376;50.932;4.442;2023-04-01T01:38:27;9.70;99.90
22418;DHT22;11376;50.932;4.442;2023-04-01T01:40:55;9.70;99.90
22418;DHT22;11376;50.932;4.442;2023-04-01T01:43:25;9.70;99.90
22418;DHT22;11376;50.932;4.442;2023-04-01T01:45:54;9.60;99.90
22418;DHT22;11376;50.932;4.442;2023-04-01T01:48:22;9.70;99.90
22418;DHT22;11376;50.932;4.442;2023-04-01T01:50:49;9.70;99.90
22418;DHT22;11376;50.932;4.442;2023-04-01T01:53:15;9.60;99.90
22418;DHT22;11376;50.932;4.442;2023-04-01T01:55:44;9.70;99.90
22418;DHT22;11376;50.932;4.442;2023-04-01T02:00:50;9.60;99.90
22418;DHT22;11376;50.932;4.442;2023-04-01T02:03:17;9.70;99.90
22418;DHT22;11376;50.932;4.442;2023-04-01T02:05:45;9.60;99.90
22418;DHT22;11376;50.932;4.442;2023-04-01T02:08:17;9.60;99.90
22418;DHT22;11376;50.932;4.442;2023-04-01T02:10:56;9.60;99.90
22418;DHT22;11376;50.932;4.442;2023-04-01T02:13:33;9.60;99.90
22418;DHT22;11376;50.932;4.442;2023-04-01T02:16:03;9.60;99.90
22418;DHT22;11376;50.932;4.442;2023-04-01T02:18:35;9.60;99.90
22418;DHT22;11376;50.932;4.442;2023-04-01T02:21:03;9.60;99.90
22418;DHT22;11376;50.932;4.442;2023-04-01T02:23:32;9.50;99.90
22418;DHT22;11376;50.932;4.442;2023-04-01T02:25:59;9.50;99.90
22418;DHT22;11376;50.932;4.442;2023-04-01T02:28:26;9.50;99.90
22418;DHT22;11376;50.932;4.442;2023-04-01T02:30:53;9.50;99.90
22418;DHT22;11376;50.932;4.442;2023-04-01T02:33:19;9.50;99.90
22418;DHT22;11376;50.932;4.442;2023-04-01T02:35:46;9.50;99.90
22418;DHT22;11376;50.932;4.442;2023-04-01T02:38:13;9.50;99.90
22418;DHT22;11376;50.932;4.442;2023-04-01T02:40:49;9.50;99.90
22418;DHT22;11376;50.932;4.442;2023-04-01T02:43:16;9.50;99.90
22418;DHT22;11376;50.932;4.442;2023-04-01T02:45:43;9.50;99.90
22418;DHT22;11376;50.932;4.442;2023-04-01T02:48:09;9.50;99.90
22418;DHT22;11376;50.932;4.442;2023-04-01T02:50:34;9.50;99.90
22418;DHT22;11376;50.932;4.442;2023-04-01T02:53:01;9.50;99.90
22418;DHT22;11376;50.932;4.442;2023-04-01T02:55:29;9.50;99.90
22418;DHT22;11376;50.932;4.442;2023-04-01T02:57:55;9.40;99.90
22418;DHT22;11376;50.932;4.442;2023-04-01T03:00:21;9.50;99.90
22418;DHT22;11376;50.932;4.442;2023-04-01T03:02:46;9.50;99.90
22418;DHT22;11376;50.932;4.442;2023-04-01T03:05:12;9.50;99.90
22418;DHT22;11376;50.932;4.442;2023-04-01T03:07:38;9.40;99.90
22418;DHT22;11376;50.932;4.442;2023-04-01T03:10:05;9.40;99.90
22418;DHT22;11376;50.932;4.442;2023-04-01T03:12:31;9.50;99.90
22418;DHT22;11376;50.932;4.442;2023-04-01T03:14:56;9.50;99.90
22418;DHT22;11376;50.932;4.442;2023-04-01T03:17:22;9.40;99.90
22418;DHT22;11376;50.932;4.442;2023-04-01T03:19:47;9.40;99.90
22418;DHT22;11376;50.932;4.442;2023-04-01T03:22:13;9.50;99.90
22418;DHT22;11376;50.932;4.442;2023-04-01T03:24:39;9.50;99.90
22418;DHT22;11376;50.932;4.442;2023-04-01T03:27:05;9.50;99.90
22418;DHT22;11376;50.932;4.442;2023-04-01T03:29:30;9.50;99.90
22418;DHT22;11376;50.932;4.442;2023-04-01T03:31:56;9.50;99.90
22418;DHT22;11376;50.932;4.442;2023-04-01T03:34:23;9.50;99.90
22418;DHT22;11376;50.932;4.442;2023-04-01T03:36:49;9.50;99.90
22418;DHT22;11376;50.932;4.442;2023-04-01T03:39:16;9.50;99.90
22418;DHT22;11376;50.932;4.442;2023-04-01T03:41:44;9.50;99.90
22418;DHT22;11376;50.932;4.442;2023-04-01T03:44:10;9.50;99.90
22418;DHT22;11376;50.932;4.442;2023-04-01T03:46:36;9.50;99.90
22418;DHT22;11376;50.932;4.442;2023-04-01T03:49:02;9.50;99.90
22418;DHT22;11376;50.932;4.442;2023-04-01T03:51:27;9.50;99.90
22418;DHT22;11376;50.932;4.442;2023-04-01T03:53:53;9.50;99.90
22418;DHT22;11376;50.932;4.442;2023-04-01T03:56:19;9.50;99.90
22418;DHT22;11376;50.932;4.442;2023-04-01T03:58:44;9.50;99.90
22418;DHT22;11376;50.932;4.442;2023-04-01T04:01:19;9.60;99.90
22418;DHT22;11376;50.932;4.442;2023-04-01T04:03:46;9.50;99.90
22418;DHT22;11376;50.932;4.442;2023-04-01T04:06:13;9.50;99.90
22418;DHT22;11376;50.932;4.442;2023-04-01T04:08:39;9.50;99.90
22418;DHT22;11376;50.932;4.442;2023-04-01T04:11:05;9.60;99.90
22418;DHT22;11376;50.932;4.442;2023-04-01T04:13:30;9.50;99.90
22418;DHT22;11376;50.932;4.442;2023-04-01T04:15:56;9.50;99.90
22418;DHT22;11376;50.932;4.442;2023-04-01T04:18:22;9.50;99.90
22418;DHT22;11376;50.932;4.442;2023-04-01T04:20:47;9.50;99.90
22418;DHT22;11376;50.932;4.442;2023-04-01T04:23:15;9.40;99.90
22418;DHT22;11376;50.932;4.442;2023-04-01T04:25:41;9.40;99.90
22418;DHT22;11376;50.932;4.442;2023-04-01T04:28:06;9.40;99.90
22418;DHT22;11376;50.932;4.442;2023-04-01T04:30:32;9.40;99.90
22418;DHT22;11376;50.932;4.442;2023-04-01T04:32:58;9.50;99.90
22418;DHT22;11376;50.932;4.442;2023-04-01T04:35:23;9.40;99.90
22418;DHT22;11376;50.932;4.442;2023-04-01T04:37:49;9.40;99.90
22418;DHT22;11376;50.932;4.442;2023-04-01T04:40:14;9.40;99.90
22418;DHT22;11376;50.932;4.442;2023-04-01T04:42:40;9.40;99.90
22418;DHT22;11376;50.932;4.442;2023-04-01T04:45:06;9.40;99.90
22418;DHT22;11376;50.932;4.442;2023-04-01T04:47:31;9.40;99.90
22418;DHT22;11376;50.932;4.442;2023-04-01T04:49:57;9.40;99.90
22418;DHT22;11376;50.932;4.442;2023-04-01T04:52:23;9.40;99.90
22418;DHT22;11376;50.932;4.442;2023-04-01T04:54:48;9.40;99.90
22418;DHT22;11376;50.932;4.442;2023-04-01T04:57:14;9.40;99.90
22418;DHT22;11376;50.932;4.442;2023-04-01T04:59:39;9.40;99.90
22418;DHT22;11376;50.932;4.442;2023-04-01T05:02:05;9.40;99.90
22418;DHT22;11376;50.932;4.442;2023-04-01T05:04:35;9.40;99.90
22418;DHT22;11376;50.932;4.442;2023-04-01T05:07:01;9.40;99.90
22418;DHT22;11376;50.932;4.442;2023-04-01T05:09:26;9.50;99.90
22418;DHT22;11376;50.932;4.442;2023-04-01T05:11:52;9.50;99.90
22418;DHT22;11376;50.932;4.442;2023-04-01T05:14:17;9.50;99.90
22418;DHT22;11376;50.932;4.442;2023-04-01T05:16:43;9.50;99.90
22418;DHT22;11376;50.932;4.442;2023-04-01T05:19:08;9.40;99.90
22418;DHT22;11376;50.932;4.442;2023-04-01T05:21:34;9.40;99.90
22418;DHT22;11376;50.932;4.442;2023-04-01T05:24:00;9.40;99.90
22418;DHT22;11376;50.932;4.442;2023-04-01T05:26:25;9.40;99.90
22418;DHT22;11376;50.932;4.442;2023-04-01T05:28:51;9.40;99.90
22418;DHT22;11376;50.932;4.442;2023-04-01T05:31:16;9.40;99.90
22418;DHT22;11376;50.932;4.442;2023-04-01T05:33:42;9.40;99.90
22418;DHT22;11376;50.932;4.442;2023-04-01T05:36:09;9.40;99.90
22418;DHT22;11376;50.932;4.442;2023-04-01T05:38:35;9.40;99.90
22418;DHT22;11376;50.932;4.442;2023-04-01T05:41:02;9.40;99.90
22418;DHT22;11376;50.932;4.442;2023-04-01T05:43:28;9.40;99.90
22418;DHT22;11376;50.932;4.442;2023-04-01T05:45:55;9.50;99.90
22418;DHT22;11376;50.932;4.442;2023-04-01T05:48:20;9.50;99.90
22418;DHT22;11376;50.932;4.442;2023-04-01T05:50:46;9.50;99.90
22418;DHT22;11376;50.932;4.442;2023-04-01T05:53:12;9.50;99.90
22418;DHT22;11376;50.932;4.442;2023-04-01T05:55:37;9.40;99.90
22418;DHT22;11376;50.932;4.442;2023-04-01T05:58:03;9.40;99.90
22418;DHT22;11376;50.932;4.442;2023-04-01T06:00:29;9.40;99.90
22418;DHT22;11376;50.932;4.442;2023-04-01T06:02:54;9.50;99.90
22418;DHT22;11376;50.932;4.442;2023-04-01T06:05:26;9.50;99.90
22418;DHT22;11376;50.932;4.442;2023-04-01T06:08:00;9.40;99.90
22418;DHT22;11376;50.932;4.442;2023-04-01T06:11:28;9.40;99.90
22418;DHT22;11376;50.932;4.442;2023-04-01T06:13:47;9.30;99.90
22418;DHT22;11376;50.932;4.442;2023-04-01T06:16:49;9.30;99.90
22418;DHT22;11376;50.932;4.442;2023-04-01T06:24:55;9.40;99.90
22418;DHT22;11376;50.932;4.442;2023-04-01T06:31:00;9.40;99.90
22418;DHT22;11376;50.932;4.442;2023-04-01T06:34:53;9.40;99.90
22418;DHT22;11376;50.932;4.442;2023-04-01T06:42:24;9.40;99.90
22418;DHT22;11376;50.932;4.442;2023-04-01T06:54:48;9.30;99.90
22418;DHT22;11376;50.932;4.442;2023-04-01T06:56:58;9.40;99.90
22418;DHT22;11376;50.932;4.442;2023-04-01T06:59:28;9.40;99.90
22418;DHT22;11376;50.932;4.442;2023-04-01T07:01:59;9.40;99.90
22418;DHT22;11376;50.932;4.442;2023-04-01T07:04:30;9.30;99.90
22418;DHT22;11376;50.932;4.442;2023-04-01T07:09:52;9.20;99.90
22418;DHT22;11376;50.932;4.442;2023-04-01T07:14:58;9.30;99.90
22418;DHT22;11376;50.932;4.442;2023-04-01T07:17:28;9.30;99.90
22418;DHT22;11376;50.932;4.442;2023-04-01T07:20:05;9.40;99.90
22418;DHT22;11376;50.932;4.442;2023-04-01T07:22:40;9.40;99.90
22418;DHT22;11376;50.932;4.442;2023-04-01T07:25:15;9.30;99.90
22418;DHT22;11376;50.932;4.442;2023-04-01T07:27:46;9.40;99.90
22418;DHT22;11376;50.932;4.442;2023-04-01T07:30:22;9.40;99.90
22418;DHT22;11376;50.932;4.442;2023-04-01T07:33:05;9.40;99.90
22418;DHT22;11376;50.932;4.442;2023-04-01T07:35:49;9.40;99.90
22418;DHT22;11376;50.932;4.442;2023-04-01T07:52:06;9.50;99.90
22418;DHT22;11376;50.932;4.442;2023-04-01T07:54:52;9.60;99.90
22418;DHT22;11376;50.932;4.442;2023-04-01T07:57:30;9.60;99.90
22418;DHT22;11376;50.932;4.442;2023-04-01T08:00:19;9.70;99.90
22418;DHT22;11376;50.932;4.442;2023-04-01T08:03:09;9.60;99.90
22418;DHT22;11376;50.932;4.442;2023-04-01T08:05:41;9.60;99.90
22418;DHT22;11376;50.932;4.442;2023-04-01T08:08:19;9.60;99.90
22418;DHT22;11376;50.932;4.442;2023-04-01T08:16:38;9.70;99.90
22418;DHT22;11376;50.932;4.442;2023-04-01T08:19:31;9.80;99.90
22418;DHT22;11376;50.932;4.442;2023-04-01T08:22:11;9.80;99.90
22418;DHT22;11376;50.932;4.442;2023-04-01T08:24:46;9.70;99.90
22418;DHT22;11376;50.932;4.442;2023-04-01T08:27:37;9.80;99.90
22418;DHT22;11376;50.932;4.442;2023-04-01T08:32:47;9.80;99.90
22418;DHT22;11376;50.932;4.442;2023-04-01T08:37:40;9.70;99.90
22418;DHT22;11376;50.932;4.442;2023-04-01T08:40:29;9.70;99.90
22418;DHT22;11376;50.932;4.442;2023-04-01T08:43:16;9.60;99.90
22418;DHT22;11376;50.932;4.442;2023-04-01T08:53:58;9.90;99.90
22418;DHT22;11376;50.932;4.442;2023-04-01T08:56:59;9.90;99.90
22418;DHT22;11376;50.932;4.442;2023-04-01T08:59:42;9.90;99.90
22418;DHT22;11376;50.932;4.442;2023-04-01T09:05:17;10.00;99.90
22418;DHT22;11376;50.932;4.442;2023-04-01T09:08:04;10.10;99.90
22418;DHT22;11376;50.932;4.442;2023-04-01T09:13:57;10.10;99.90
22418;DHT22;11376;50.932;4.442;2023-04-01T09:19:25;10.10;99.90
22418;DHT22;11376;50.932;4.442;2023-04-01T09:24:56;10.00;99.90
22418;DHT22;11376;50.932;4.442;2023-04-01T09:27:43;10.00;99.90
22418;DHT22;11376;50.932;4.442;2023-04-01T09:30:32;10.00;99.90
22418;DHT22;11376;50.932;4.442;2023-04-01T09:35:58;10.00;99.90
22418;DHT22;11376;50.932;4.442;2023-04-01T09:38:56;10.00;99.90
22418;DHT22;11376;50.932;4.442;2023-04-01T09:41:36;10.10;99.90
22418;DHT22;11376;50.932;4.442;2023-04-01T09:44:23;10.10;99.90
22418;DHT22;11376;50.932;4.442;2023-04-01T09:54:42;10.20;99.90
22418;DHT22;11376;50.932;4.442;2023-04-01T10:00:51;10.10;99.90
22418;DHT22;11376;50.932;4.442;2023-04-01T10:06:12;10.30;99.90
22418;DHT22;11376;50.932;4.442;2023-04-01T10:11:51;10.20;99.90
22418;DHT22;11376;50.932;4.442;2023-04-01T10:20:12;10.10;99.90
22418;DHT22;11376;50.932;4.442;2023-04-01T10:25:44;10.30;99.90
22418;DHT22;11376;50.932;4.442;2023-04-01T10:31:18;10.50;99.90
22418;DHT22;11376;50.932;4.442;2023-04-01T10:41:59;10.50;99.90
22418;DHT22;11376;50.932;4.442;2023-04-01T10:47:58;10.60;99.90
22418;DHT22;11376;50.932;4.442;2023-04-01T10:56:07;10.80;99.90
22418;DHT22;11376;50.932;4.442;2023-04-01T11:02:01;10.70;99.90
22418;DHT22;11376;50.932;4.442;2023-04-01T11:08:03;10.70;99.90
22418;DHT22;11376;50.932;4.442;2023-04-01T11:16:27;10.50;99.90
22418;DHT22;11376;50.932;4.442;2023-04-01T11:22:50;10.40;99.90
22418;DHT22;11376;50.932;4.442;2023-04-01T11:33:28;10.70;99.90
22418;DHT22;11376;50.932;4.442;2023-04-01T11:49:42;10.40;99.90
22418;DHT22;11376;50.932;4.442;2023-04-01T12:00:12;10.50;99.90
22418;DHT22;11376;50.932;4.442;2023-04-01T12:05:42;10.60;99.90
22418;DHT22;11376;50.932;4.442;2023-04-01T12:14:09;10.80;99.90
22418;DHT22;11376;50.932;4.442;2023-04-01T12:27:51;10.90;99.90
22418;DHT22;11376;50.932;4.442;2023-04-01T12:30:39;10.80;99.90
22418;DHT22;11376;50.932;4.442;2023-04-01T12:39:21;10.60;99.90
22418;DHT22;11376;50.932;4.442;2023-04-01T13:20:41;10.60;99.90
22418;DHT22;11376;50.932;4.442;2023-04-01T13:23:18;10.60;99.90
22418;DHT22;11376;50.932;4.442;2023-04-01T13:28:38;10.40;99.90
22418;DHT22;11376;50.932;4.442;2023-04-01T13:31:20;10.30;99.90
22418;DHT22;11376;50.932;4.442;2023-04-01T13:42:04;10.40;99.90
22418;DHT22;11376;50.932;4.442;2023-04-01T13:44:36;10.70;99.90
22418;DHT22;11376;50.932;4.442;2023-04-01T13:50:19;10.80;99.90
22418;DHT22;11376;50.932;4.442;2023-04-01T13:58:36;10.60;99.90
22418;DHT22;11376;50.932;4.442;2023-04-01T14:01:09;10.60;99.90
22418;DHT22;11376;50.932;4.442;2023-04-01T14:03:43;10.40;99.90
22418;DHT22;11376;50.932;4.442;2023-04-01T14:09:12;10.40;99.90
22418;DHT22;11376;50.932;4.442;2023-04-01T14:11:41;10.40;99.90
22418;DHT22;11376;50.932;4.442;2023-04-01T14:17:10;10.40;99.90
22418;DHT22;11376;50.932;4.442;2023-04-01T14:33:39;10.70;99.90
22418;DHT22;11376;50.932;4.442;2023-04-01T14:50:18;10.60;99.90
22418;DHT22;11376;50.932;4.442;2023-04-01T14:55:51;10.70;99.90
22418;DHT22;11376;50.932;4.442;2023-04-01T14:58:19;10.60;99.90
22418;DHT22;11376;50.932;4.442;2023-04-01T15:01:13;10.50;99.90
22418;DHT22;11376;50.932;4.442;2023-04-01T15:04:10;10.90;99.90
22418;DHT22;11376;50.932;4.442;2023-04-01T15:12:30;11.30;99.90
22418;DHT22;11376;50.932;4.442;2023-04-01T15:15:11;11.30;99.90
22418;DHT22;11376;50.932;4.442;2023-04-01T15:17:43;11.10;99.90
22418;DHT22;11376;50.932;4.442;2023-04-01T15:20:47;10.90;99.90
22418;DHT22;11376;50.932;4.442;2023-04-01T15:23:46;10.80;99.90
22418;DHT22;11376;50.932;4.442;2023-04-01T15:26:35;10.70;99.90
22418;DHT22;11376;50.932;4.442;2023-04-01T15:40:17;10.70;99.90
22418;DHT22;11376;50.932;4.442;2023-04-01T15:48:17;10.50;99.90
22418;DHT22;11376;50.932;4.442;2023-04-01T16:04:36;10.00;99.90
22418;DHT22;11376;50.932;4.442;2023-04-01T16:27:13;9.80;99.90
22418;DHT22;11376;50.932;4.442;2023-04-01T16:29:53;9.80;99.90
22418;DHT22;11376;50.932;4.442;2023-04-01T16:32:44;9.80;99.90
22418;DHT22;11376;50.932;4.442;2023-04-01T16:37:47;9.60;99.90
22418;DHT22;11376;50.932;4.442;2023-04-01T16:40:44;9.60;99.90
22418;DHT22;11376;50.932;4.442;2023-04-01T16:51:16;9.50;99.90
22418;DHT22;11376;50.932;4.442;2023-04-01T16:53:47;9.60;99.90
22418;DHT22;11376;50.932;4.442;2023-04-01T16:56:20;9.60;99.90
22418;DHT22;11376;50.932;4.442;2023-04-01T17:01:28;9.60;99.90
22418;DHT22;11376;50.932;4.442;2023-04-01T17:04:11;9.40;99.90
22418;DHT22;11376;50.932;4.442;2023-04-01T17:06:52;9.40;99.90
22418;DHT22;11376;50.932;4.442;2023-04-01T17:20:43;9.50;99.90
22418;DHT22;11376;50.932;4.442;2023-04-01T17:26:36;9.60;99.90
22418;DHT22;11376;50.932;4.442;2023-04-01T17:31:40;9.50;99.90
22418;DHT22;11376;50.932;4.442;2023-04-01T17:39:54;9.50;99.90
22418;DHT22;11376;50.932;4.442;2023-04-01T17:42:38;9.50;99.90
22418;DHT22;11376;50.932;4.442;2023-04-01T17:57:13;9.40;99.90
22418;DHT22;11376;50.932;4.442;2023-04-01T18:05:57;9.50;99.90
22418;DHT22;11376;50.932;4.442;2023-04-01T18:11:14;9.50;99.90
22418;DHT22;11376;50.932;4.442;2023-04-01T18:16:59;9.40;99.90
22418;DHT22;11376;50.932;4.442;2023-04-01T18:19:33;9.40;99.90
22418;DHT22;11376;50.932;4.442;2023-04-01T18:22:33;9.30;99.90
22418;DHT22;11376;50.932;4.442;2023-04-01T18:27:44;9.30;99.90
22418;DHT22;11376;50.932;4.442;2023-04-01T18:30:30;9.30;99.90
22418;DHT22;11376;50.932;4.442;2023-04-01T18:36:02;9.20;99.90
22418;DHT22;11376;50.932;4.442;2023-04-01T18:38:44;9.20;99.90
22418;DHT22;11376;50.932;4.442;2023-04-01T18:52:03;9.30;99.90
22418;DHT22;11376;50.932;4.442;2023-04-01T18:57:52;9.20;99.90
22418;DHT22;11376;50.932;4.442;2023-04-01T19:00:32;9.20;99.90
22418;DHT22;11376;50.932;4.442;2023-04-01T19:03:11;9.20;99.90
22418;DHT22;11376;50.932;4.442;2023-04-01T19:05:44;9.10;99.90
22418;DHT22;11376;50.932;4.442;2023-04-01T19:21:45;9.10;99.90
22418;DHT22;11376;50.932;4.442;2023-04-01T19:27:37;9.10;99.90
22418;DHT22;11376;50.932;4.442;2023-04-01T19:30:48;9.10;99.90
22418;DHT22;11376;50.932;4.442;2023-04-01T19:33:42;9.10;99.90
22418;DHT22;11376;50.932;4.442;2023-04-01T19:38:43;9.00;99.90
22418;DHT22;11376;50.932;4.442;2023-04-01T19:52:33;9.00;99.90
22418;DHT22;11376;50.932;4.442;2023-04-01T19:58:13;9.00;99.90
22418;DHT22;11376;50.932;4.442;2023-04-01T20:00:57;9.00;99.90
22418;DHT22;11376;50.932;4.442;2023-04-01T20:03:41;9.00;99.90
22418;DHT22;11376;50.932;4.442;2023-04-01T20:14:50;9.10;99.90
22418;DHT22;11376;50.932;4.442;2023-04-01T20:25:53;9.10;99.90
22418;DHT22;11376;50.932;4.442;2023-04-01T20:31:42;9.10;99.90
22418;DHT22;11376;50.932;4.442;2023-04-01T20:40:06;9.10;99.90
22418;DHT22;11376;50.932;4.442;2023-04-01T20:53:29;9.20;99.90
22418;DHT22;11376;50.932;4.442;2023-04-01T20:58:53;9.20;99.90
22418;DHT22;11376;50.932;4.442;2023-04-01T21:01:29;9.20;99.90
22418;DHT22;11376;50.932;4.442;2023-04-01T21:04:22;9.20;99.90
22418;DHT22;11376;50.932;4.442;2023-04-01T21:20:40;9.40;99.90
22418;DHT22;11376;50.932;4.442;2023-04-01T21:29:26;9.50;99.90
22418;DHT22;11376;50.932;4.442;2023-04-01T21:32:18;9.50;99.90
22418;DHT22;11376;50.932;4.442;2023-04-01T21:47:02;9.90;99.90
22418;DHT22;11376;50.932;4.442;2023-04-01T21:52:16;10.10;99.90
22418;DHT22;11376;50.932;4.442;2023-04-01T22:00:55;10.00;99.90
22418;DHT22;11376;50.932;4.442;2023-04-01T22:09:03;10.00;99.90
22418;DHT22;11376;50.932;4.442;2023-04-01T22:14:16;10.10;99.90
22418;DHT22;11376;50.932;4.442;2023-04-01T22:17:25;10.10;99.90
22418;DHT22;11376;50.932;4.442;2023-04-01T22:23:01;10.10;99.90
22418;DHT22;11376;50.932;4.442;2023-04-01T22:31:02;10.20;99.90
22418;DHT22;11376;50.932;4.442;2023-04-01T22:36:54;10.10;99.90
22418;DHT22;11376;50.932;4.442;2023-04-01T22:39:59;10.00;99.90
22418;DHT22;11376;50.932;4.442;2023-04-01T22:42:48;10.00;99.90
22418;DHT22;11376;50.932;4.442;2023-04-01T22:45:37;10.00;99.90
22418;DHT22;11376;50.932;4.442;2023-04-01T22:48:11;10.10;99.90
22418;DHT22;11376;50.932;4.442;2023-04-01T22:51:10;10.20;99.90
22418;DHT22;11376;50.932;4.442;2023-04-01T22:53:50;10.10;99.90
22418;DHT22;11376;50.932;4.442;2023-04-01T22:56:37;10.10;99.90
22418;DHT22;11376;50.932;4.442;2023-04-01T23:01:34;10.10;99.90
22418;DHT22;11376;50.932;4.442;2023-04-01T23:04:04;10.00;99.90
22418;DHT22;11376;50.932;4.442;2023-04-01T23:06:38;10.00;99.90
22418;DHT22;11376;50.932;4.442;2023-04-01T23:09:16;10.10;99.90
22418;DHT22;11376;50.932;4.442;2023-04-01T23:12:00;10.10;99.90
22418;DHT22;11376;50.932;4.442;2023-04-01T23:14:33;10.10;99.90
22418;DHT22;11376;50.932;4.442;2023-04-01T23:25:16;9.90;99.90
22418;DHT22;11376;50.932;4.442;2023-04-01T23:27:50;10.00;99.90
22418;DHT22;11376;50.932;4.442;2023-04-01T23:33:28;9.80;99.90
22418;DHT22;11376;50.932;4.442;2023-04-01T23:38:35;9.90;99.90
22418;DHT22;11376;50.932;4.442;2023-04-01T23:41:02;9.90;99.90
22418;DHT22;11376;50.932;4.442;2023-04-01T23:43:36;9.80;99.90
22418;DHT22;11376;50.932;4.442;2023-04-01T23:46:04;9.80;99.90
22418;DHT22;11376;50.932;4.442;2023-04-01T23:48:39;9.70;99.90
22418;DHT22;11376;50.932;4.442;2023-04-01T23:51:39;9.70;99.90
22418;DHT22;11376;50.932;4.442;2023-04-01T23:54:17;9.60;99.90
22418;DHT22;11376;50.932;4.442;2023-04-01T23:56:53;9.60;99.90
22418;DHT22;11376;50.932;4.442;2023-04-01T23:59:35;9.60;99.90
